Tring, United Kingdom
Current Conditions -  °F | °C
As of 8:20 AM on Thursday 27 Nov 2014 (Local Time) from EGGW Reporting Station
Moderate Fog Moderate Fog  
Wind Chill: 46°   Ceiling: 200
Heat Index: 46°   Visibility: 0.28mi
Dew Point: 46°   Wind: 2mph
Humidity: 100%   Direction: 230°SW
Pressure: 29.62"   Gusts: NA
Location:  51.79°N, 0.66°W
Report Text: EGGW 270820Z 23002KT 0450 R26/0550 FG OVC002 08/08 Q1003
Loading
Personal Weather Stations






























Interactive Weather Map New forecast layout! Learn more

10-Day Weather Forecast

Advertisements
Track Severe Weather on mobile